KHLX

Details ICAO KHLX
Name TWIN COUNTY
Region United States
Timezone America/New_York (UTC-4.0)
Plans Departing 8
Arriving 7
Stats Elevation 2,693 ft / 821 m (AMSL)
Location 36.766114° -80.823567°
Runways 1
Magnetic Variation 8.055° W
Sunrise 2018-05-21 10:12:49 UTC / 2018-05-21 06:12:49 Local
Sunset 2018-05-22 00:29:50 UTC / 2018-05-21 20:29:50 Local
Advertisement - Login to hide

Runways

ID Width Length Bearing (true) Bearing (mag) Surface Threshold Offset Overrun Length
01 75 ft / 23 m 4,213 ft / 1,284 m 9.96° 18.02° Asphalt 0 ft / 0 m 0 ft / 0 m
19 75 ft / 23 m 4,213 ft / 1,284 m 189.96° 198.02° Asphalt 0 ft / 0 m 0 ft / 0 m

Map

Weather


0- 5 10 15 20 25 30 35+ Temperature / ° C

Clouds and Precipitation
Forecast for 2018-05-21 18:00 UTC. Updated 2 hours ago

Ground ~20,000 ft ~40,000 ft Winds

METAR

KHLX 211715Z AUTO 36007KT 5SM -TSRA SCT009 SCT024 OVC037 18/16 A3024 RMK AO2 LTG DSNT ALQS P0014 T01780164

TAF

Not found

Frequencies

Recorded 118.37 MHz AWOS 3
Approach 126.00 MHz ROANOKE APP/DEP
Unicom 122.80 MHz CTAF/UNICOM
Warning: Do not use this data for real-world aviation or navigation. No guarantee of current accuracy is given.